Time;durP1;ratioP1;P1;durP2;ratioP2;P2;SDS_P1;SDS_P2;PMS_P1;PMS_P2;Temp;Humidity;BMP_temperature;BMP_pressure;BME280_temperature;BME280_humidity;BME280_pressure;Samples;Min_cycle;Max_cycle;Signal;HPM_P1;HPM_P2
2023/04/28 00:01:13;;;;;;;32.65;30.65;;;;;;;17.89;42.58;101213.69;4994060;28;20496;-69
2023/04/28 00:03:38;;;;;;;31.33;29.40;;;;;;;17.89;42.55;101219.16;4994381;28;20041;-69
2023/04/28 00:06:04;;;;;;;32.45;30.55;;;;;;;17.86;42.58;101211.50;4994474;28;20081;-68
2023/04/28 00:08:30;;;;;;;33.70;31.70;;;;;;;17.84;42.72;101195.41;4976519;28;20040;-68
2023/04/28 00:10:55;;;;;;;32.63;30.67;;;;;;;17.82;42.72;101191.31;4994486;28;20116;-68
2023/04/28 00:13:21;;;;;;;29.88;28.23;;;;;;;17.81;42.67;101195.16;4977186;28;20512;-68
2023/04/28 00:15:46;;;;;;;32.63;30.58;;;;;;;17.79;42.82;101189.94;4993952;28;20093;-68
2023/04/28 00:18:12;;;;;;;33.70;31.55;;;;;;;17.79;42.83;101189.09;4994536;28;20039;-68
2023/04/28 00:20:37;;;;;;;32.13;30.15;;;;;;;17.76;42.66;101182.28;4994209;28;20037;-68
2023/04/28 00:23:04;;;;;;;34.10;32.03;;;;;;;17.74;43.11;101182.59;4993387;28;20053;-68
2023/04/28 00:25:29;;;;;;;31.88;29.98;;;;;;;17.73;42.68;101169.19;4993918;28;20038;-68
2023/04/28 00:27:55;;;;;;;32.35;30.45;;;;;;;17.70;43.07;101156.91;4993703;28;20034;-68
2023/04/28 00:30:21;;;;;;;31.77;29.85;;;;;;;17.69;42.82;101155.28;4960383;28;20449;-68
2023/04/28 00:32:46;;;;;;;32.58;30.30;;;;;;;17.68;43.13;101161.00;4994023;28;20113;-68
2023/04/28 00:35:11;;;;;;;31.38;29.38;;;;;;;17.65;42.65;101154.19;4976433;28;20057;-68
2023/04/28 00:37:37;;;;;;;31.38;29.42;;;;;;;17.65;42.96;101150.66;4994301;28;20463;-68
2023/04/28 00:40:03;;;;;;;34.20;32.03;;;;;;;17.62;42.76;101148.50;4976395;28;20085;-68
2023/04/28 00:42:29;;;;;;;30.70;28.88;;;;;;;17.61;42.75;101144.09;4993758;28;20034;-68
2023/04/28 00:44:54;;;;;;;32.88;30.88;;;;;;;17.58;43.20;101137.28;4993695;28;20034;-68
2023/04/28 00:47:21;;;;;;;31.15;29.15;;;;;;;17.57;43.16;101141.13;4993781;28;20026;-68
2023/04/28 00:49:48;;;;;;;33.00;30.92;;;;;;;17.55;43.28;101142.50;4993941;28;20077;-68
2023/04/28 00:52:14;;;;;;;31.75;29.77;;;;;;;17.55;43.19;101137.03;4976668;28;20030;-68
2023/04/28 00:54:41;;;;;;;29.73;28.00;;;;;;;17.52;43.17;101141.97;4976661;28;20037;-68
2023/04/28 00:57:08;;;;;;;33.65;31.48;;;;;;;17.51;42.80;101131.31;4996309;28;20125;-68
2023/04/28 00:59:34;;;;;;;29.60;27.90;;;;;;;17.49;42.86;101128.88;4996996;28;20452;-68
2023/04/28 01:02:00;;;;;;;32.78;30.35;;;;;;;17.47;42.91;101128.31;4997089;28;20129;-68
2023/04/28 01:04:27;;;;;;;31.23;29.20;;;;;;;17.45;43.31;101114.13;4997093;28;20113;-68
2023/04/28 01:06:54;;;;;;;31.90;29.67;;;;;;;17.45;42.89;101102.41;4997464;28;20462;-68
2023/04/28 01:09:20;;;;;;;30.92;29.23;;;;;;;17.43;43.11;101094.47;4996516;28;20390;-68
2023/04/28 01:11:45;;;;;;;30.08;28.00;;;;;;;17.42;43.42;101095.59;4996947;28;20042;-68
2023/04/28 01:14:11;;;;;;;32.63;30.08;;;;;;;17.41;42.74;101095.84;4997443;28;20035;-68
2023/04/28 01:16:37;;;;;;;31.52;29.52;;;;;;;17.39;43.29;101093.41;4997111;28;20026;-68
2023/04/28 01:19:06;;;;;;;33.17;30.92;;;;;;;17.37;42.91;101095.59;4996922;28;20027;-68
2023/04/28 01:21:31;;;;;;;;;;;;;;;17.33;43.36;101099.97;4997491;28;20030;-68
2023/04/28 01:23:57;;;;;;;30.33;28.08;;;;;;;17.31;43.24;101104.91;4997353;28;19932;-68
2023/04/28 01:26:23;;;;;;;28.08;26.42;;;;;;;17.27;43.34;101110.09;4996356;28;20042;-68
2023/04/28 01:28:49;;;;;;;30.98;28.83;;;;;;;17.26;43.15;101099.47;4996392;28;20666;-68
2023/04/28 01:31:15;;;;;;;32.15;30.08;;;;;;;17.26;43.33;101096.72;4997243;28;20038;-68
2023/04/28 01:33:41;;;;;;;30.63;28.70;;;;;;;17.23;43.21;101092.63;4996892;28;20034;-68
2023/04/28 01:36:06;;;;;;;32.75;30.55;;;;;;;17.22;43.14;101096.47;4996390;28;20120;-68
2023/04/28 01:38:32;;;;;;;32.85;30.50;;;;;;;17.21;43.40;101083.94;4996434;28;20034;-68
2023/04/28 01:40:58;;;;;;;31.48;29.48;;;;;;;17.20;43.29;101076.81;4979408;28;20038;-68
2023/04/28 01:43:23;;;;;;;31.17;29.25;;;;;;;17.19;43.35;101077.13;4996596;28;20030;-68
2023/04/28 01:45:50;;;;;;;30.13;28.27;;;;;;;17.18;43.38;101072.75;4996854;28;20092;-68
2023/04/28 01:48:15;;;;;;;31.95;29.85;;;;;;;17.16;43.08;101059.38;4996511;28;20034;-68
2023/04/28 01:50:41;;;;;;;31.77;29.58;;;;;;;17.16;43.51;101061.28;4996371;28;20483;-69
2023/04/28 01:53:06;;;;;;;31.13;29.08;;;;;;;17.14;43.12;101068.94;4996415;28;20462;-68
2023/04/28 01:55:31;;;;;;;31.48;29.40;;;;;;;17.12;43.18;101071.13;4996293;28;20038;-68
2023/04/28 01:57:57;;;;;;;30.77;28.83;;;;;;;17.09;43.55;101081.50;4996222;28;20105;-68
2023/04/28 02:00:23;;;;;;;31.75;29.38;;;;;;;17.08;43.46;101070.84;4996164;28;20073;-68
2023/04/28 02:02:48;;;;;;;32.03;30.08;;;;;;;17.07;43.23;101061.06;4996645;28;20037;-69
2023/04/28 02:05:14;;;;;;;30.88;28.85;;;;;;;17.06;43.38;101056.69;4995968;28;20061;-68
2023/04/28 02:07:40;;;;;;;30.63;28.48;;;;;;;17.03;43.11;101049.88;4995243;28;20426;-68
2023/04/28 02:10:06;;;;;;;30.35;28.33;;;;;;;17.02;43.33;101039.25;4995609;28;20137;-68
2023/04/28 02:12:32;;;;;;;28.75;27.15;;;;;;;17.01;43.41;101040.31;4995921;28;20034;-68
2023/04/28 02:14:58;;;;;;;30.08;28.17;;;;;;;16.98;43.41;101030.78;4995904;28;20533;-68
2023/04/28 02:17:23;;;;;;;31.55;29.48;;;;;;;16.96;43.50;101018.50;4995761;28;20409;-68
2023/04/28 02:19:55;;;;;;;29.55;27.83;;;;;;;16.93;43.63;101008.97;4995475;28;20038;-68
2023/04/28 02:22:20;;;;;;;29.60;27.80;;;;;;;16.92;43.51;101003.81;4978716;28;20031;-68
2023/04/28 02:24:46;;;;;;;28.67;27.08;;;;;;;16.91;43.87;100996.69;4995601;28;20482;-68
2023/04/28 02:27:12;;;;;;;32.15;30.00;;;;;;;16.89;43.71;100991.53;4978094;28;20045;-68
2023/04/28 02:29:37;;;;;;;30.45;28.52;;;;;;;16.89;43.40;100993.44;4978846;28;20030;-68
2023/04/28 02:32:03;;;;;;;30.17;28.05;;;;;;;16.87;43.47;100996.44;4995423;28;20030;-68
2023/04/28 02:34:29;;;;;;;29.85;27.75;;;;;;;16.86;43.58;101000.28;4995669;28;20030;-68
2023/04/28 02:36:54;;;;;;;29.10;27.40;;;;;;;16.85;43.55;100998.63;4995351;28;20385;-68
2023/04/28 02:39:25;;;;;;;29.77;27.88;;;;;;;16.82;43.91;100994.53;4995743;28;20459;-68
2023/04/28 02:41:51;;;;;;;31.17;29.25;;;;;;;16.81;43.40;100986.66;4995248;28;20038;-71
2023/04/28 02:44:17;;;;;;;31.60;29.50;;;;;;;16.81;43.74;100984.75;4995543;28;20106;-70
2023/04/28 02:46:42;;;;;;;30.08;28.05;;;;;;;16.81;43.92;100989.38;4995795;28;20033;-70
2023/04/28 02:49:08;;;;;;;31.00;29.05;;;;;;;16.80;43.60;100982.28;4995431;28;20027;-73
2023/04/28 02:51:33;;;;;;;30.30;28.40;;;;;;;16.78;43.73;100977.13;4977725;28;20022;-71
2023/04/28 02:53:58;;;;;;;29.27;27.48;;;;;;;16.77;43.65;100986.34;4995167;28;20041;-71
2023/04/28 02:56:24;;;;;;;31.60;29.30;;;;;;;16.76;43.95;100989.38;4977427;28;20030;-70
2023/04/28 02:58:49;;;;;;;31.08;28.98;;;;;;;16.75;43.43;100993.19;4995093;28;20541;-71
2023/04/28 03:01:15;;;;;;;33.10;30.73;;;;;;;16.73;43.75;100984.44;4977588;28;20085;-70
2023/04/28 03:03:40;;;;;;;30.75;28.67;;;;;;;16.72;43.59;100977.38;4995587;28;20439;-70
2023/04/28 03:06:06;;;;;;;30.77;28.88;;;;;;;16.70;43.71;100977.66;4994844;28;20027;-69
2023/04/28 03:08:31;;;;;;;30.40;28.33;;;;;;;16.69;43.49;100978.75;4994948;28;20375;-72
2023/04/28 03:10:57;;;;;;;29.13;27.33;;;;;;;16.69;43.74;100983.38;4994262;28;20056;-70
2023/04/28 03:13:22;;;;;;;33.30;31.00;;;;;;;16.66;43.78;100971.94;4977257;28;20466;-69
2023/04/28 03:15:48;;;;;;;28.75;26.88;;;;;;;16.66;43.60;100973.84;4994768;28;20031;-69
2023/04/28 03:18:13;;;;;;;31.65;29.35;;;;;;;16.64;43.61;100974.13;4994258;28;20070;-71
2023/04/28 03:20:38;;;;;;;29.48;27.50;;;;;;;16.62;43.87;100976.31;4994595;28;20437;-70
2023/04/28 03:23:04;;;;;;;29.58;27.27;;;;;;;16.61;43.63;100980.13;4994646;28;20034;-69
2023/04/28 03:25:29;;;;;;;30.67;28.58;;;;;;;16.60;44.02;100977.69;4977473;28;20453;-70
2023/04/28 03:27:55;;;;;;;29.23;27.30;;;;;;;16.59;43.72;100973.31;4994427;28;20042;-71
2023/04/28 03:30:20;;;;;;;33.58;30.95;;;;;;;16.57;43.99;100964.59;4994355;28;20026;-70
2023/04/28 03:32:46;;;;;;;31.92;29.52;;;;;;;16.55;44.24;100964.88;4994388;28;20045;-72
2023/04/28 03:35:11;;;;;;;29.85;27.85;;;;;;;16.54;44.06;100955.06;4994579;28;20034;-69
2023/04/28 03:37:36;;;;;;;29.98;28.02;;;;;;;16.53;44.09;100956.16;4994284;28;20070;-70
2023/04/28 03:40:02;;;;;;;29.42;27.33;;;;;;;16.52;43.96;100956.44;4994342;28;20465;-70
2023/04/28 03:42:27;;;;;;;29.65;27.60;;;;;;;16.52;44.31;100950.97;4994503;28;20030;-69
2023/04/28 03:44:53;;;;;;;29.70;27.80;;;;;;;16.51;43.82;100952.09;4994595;28;20454;-72
2023/04/28 03:47:18;;;;;;;30.48;28.15;;;;;;;16.49;43.96;100949.63;4977175;28;20097;-72
2023/04/28 03:49:43;;;;;;;30.38;28.17;;;;;;;16.49;44.20;100946.09;4993972;28;20539;-71
2023/04/28 03:52:09;;;;;;;30.08;28.05;;;;;;;16.48;43.92;100950.72;4994223;28;20532;-70
2023/04/28 03:54:34;;;;;;;30.23;28.10;;;;;;;16.47;44.18;100945.53;4993721;28;20030;-70
2023/04/28 03:57:01;;;;;;;29.40;27.10;;;;;;;16.45;44.00;100943.09;4977302;28;20359;-69
2023/04/28 03:59:26;;;;;;;31.50;29.20;;;;;;;16.44;43.84;100949.63;4976452;28;20093;-70
2023/04/28 04:01:52;;;;;;;30.45;28.40;;;;;;;16.43;44.22;100948.84;4977116;28;20462;-69
2023/04/28 04:04:17;;;;;;;32.88;30.25;;;;;;;16.42;44.20;100938.19;4994050;28;20478;-70
2023/04/28 04:06:42;;;;;;;29.75;27.67;;;;;;;16.41;44.08;100940.09;4994051;28;20034;-69
2023/04/28 04:09:08;;;;;;;29.42;27.05;;;;;;;16.39;43.87;100933.31;4960715;28;20070;-69
2023/04/28 04:11:33;;;;;;;29.50;27.45;;;;;;;16.38;44.24;100934.41;4994443;28;20034;-69
2023/04/28 04:13:59;;;;;;;28.88;26.98;;;;;;;16.37;44.36;100930.03;4993924;28;20038;-69
2023/04/28 04:16:24;;;;;;;29.85;27.77;;;;;;;16.36;44.38;100945.56;4993950;28;20062;-69
2023/04/28 04:18:50;;;;;;;29.23;27.30;;;;;;;16.36;44.21;100936.59;4993962;28;20132;-70
2023/04/28 04:21:15;;;;;;;29.90;27.75;;;;;;;16.35;44.33;100927.56;4993932;28;20459;-70
2023/04/28 04:23:41;;;;;;;30.00;28.00;;;;;;;16.33;44.07;100924.31;4993875;28;20033;-70
2023/04/28 04:26:06;;;;;;;28.75;26.70;;;;;;;16.31;44.42;100915.59;4993809;28;20473;-69
2023/04/28 04:28:31;;;;;;;29.95;27.48;;;;;;;16.30;44.08;100905.78;4976273;28;20471;-69
2023/04/28 04:30:57;;;;;;;30.08;27.88;;;;;;;16.29;44.17;100909.59;4995758;28;20110;-69
2023/04/28 04:33:23;;;;;;;32.00;29.48;;;;;;;16.29;44.53;100909.59;4998298;28;20458;-70
2023/04/28 04:35:48;;;;;;;30.25;28.33;;;;;;;16.29;44.28;100908.78;4997634;28;20383;-69
2023/04/28 04:38:13;;;;;;;30.25;28.10;;;;;;;16.28;44.44;100913.44;4997652;28;20030;-70
2023/04/28 04:40:39;;;;;;;29.67;27.60;;;;;;;16.27;44.24;100897.34;4997499;28;20042;-70
2023/04/28 04:43:04;;;;;;;30.08;28.08;;;;;;;16.27;44.31;100900.06;4997495;28;20490;-70
2023/04/28 04:45:30;;;;;;;30.27;28.17;;;;;;;16.26;44.34;100896.53;4997426;28;20065;-69
2023/04/28 04:47:55;;;;;;;29.48;27.38;;;;;;;16.25;44.31;100889.44;4997363;28;20121;-71
2023/04/28 04:50:20;;;;;;;32.55;30.05;;;;;;;16.23;44.56;100888.91;4997870;28;20041;-70
2023/04/28 04:52:46;;;;;;;29.88;27.55;;;;;;;16.23;44.63;100887.00;4997334;28;20038;-70
2023/04/28 04:55:11;;;;;;;27.65;25.70;;;;;;;16.22;44.29;100876.38;4997350;28;20363;-70
2023/04/28 04:57:37;;;;;;;32.30;29.90;;;;;;;16.21;44.84;100882.91;4996889;28;20038;-70
2023/04/28 05:00:03;;;;;;;28.95;27.17;;;;;;;16.20;44.50;100890.28;4997262;28;20430;-70
2023/04/28 05:02:29;;;;;;;31.63;29.33;;;;;;;16.19;44.59;100894.09;4997469;28;20040;-75
2023/04/28 05:04:54;;;;;;;30.50;28.42;;;;;;;16.19;44.64;100890.56;4997111;28;20109;-68
2023/04/28 05:07:20;;;;;;;29.38;27.15;;;;;;;16.19;44.48;100896.00;4996997;28;20386;-71
2023/04/28 05:09:45;;;;;;;28.42;26.48;;;;;;;16.18;44.50;100897.09;4997496;28;20497;-70
2023/04/28 05:12:11;;;;;;;27.10;25.40;;;;;;;16.16;44.60;100900.09;4997054;28;20088;-70
2023/04/28 05:14:36;;;;;;;30.77;28.42;;;;;;;16.16;44.46;100908.28;4997530;28;20034;-71
2023/04/28 05:17:02;;;;;;;29.48;27.20;;;;;;;16.15;44.78;100903.94;4996977;28;20527;-71
2023/04/28 05:19:27;;;;;;;29.63;27.63;;;;;;;16.15;44.71;100903.94;4997122;28;20038;-72
2023/04/28 05:21:53;;;;;;;29.00;26.88;;;;;;;16.15;44.92;100900.38;4997102;28;20093;-79
2023/04/28 05:24:25;;;;;;;29.50;27.48;;;;;;;16.14;44.45;100901.47;4979779;28;20479;-73
2023/04/28 05:26:51;;;;;;;29.30;27.05;;;;;;;16.12;44.75;100895.47;4997327;28;20038;-72
2023/04/28 05:29:16;;;;;;;30.52;27.95;;;;;;;16.11;44.80;100897.38;4996603;28;20033;-69
2023/04/28 05:31:42;;;;;;;30.88;28.52;;;;;;;16.11;44.77;100891.94;4996257;28;20030;-70
2023/04/28 05:34:07;;;;;;;30.02;27.83;;;;;;;16.11;44.63;100902.03;4997117;28;20038;-72
2023/04/28 05:36:32;;;;;;;31.83;29.48;;;;;;;16.11;44.77;100891.94;4996354;28;20118;-71
2023/04/28 05:38:59;;;;;;;29.30;27.23;;;;;;;16.11;44.83;100891.94;4996585;28;20466;-70
2023/04/28 05:41:25;;;;;;;30.05;28.13;;;;;;;16.11;44.75;100891.13;4996902;28;20031;-70
2023/04/28 05:43:50;;;;;;;28.83;26.90;;;;;;;16.09;44.69;100877.75;4978129;28;20526;-69
2023/04/28 05:46:16;;;;;;;30.80;28.63;;;;;;;16.10;44.69;100879.41;4996701;28;20053;-73
2023/04/28 05:48:42;;;;;;;31.27;28.75;;;;;;;16.09;44.97;100876.97;4996548;28;20126;-69
2023/04/28 05:51:07;;;;;;;31.65;29.35;;;;;;;16.09;44.88;100882.41;4996413;28;20061;-70
2023/04/28 05:53:32;;;;;;;32.63;30.23;;;;;;;16.08;44.89;100881.59;4996452;28;20038;-70
2023/04/28 05:55:58;;;;;;;29.70;27.40;;;;;;;16.08;45.00;100884.31;4996187;28;20129;-70
2023/04/28 05:58:23;;;;;;;29.52;27.50;;;;;;;16.07;44.71;100879.94;4996254;28;20039;-69
2023/04/28 06:00:49;;;;;;;30.27;28.08;;;;;;;16.08;44.65;100883.50;4996579;28;20030;-72
2023/04/28 06:03:17;;;;;;;29.02;26.80;;;;;;;16.07;44.78;100876.41;4978608;28;20034;-71
2023/04/28 06:05:43;;;;;;;32.25;29.83;;;;;;;16.06;44.76;100874.78;4996181;28;20038;-70
2023/04/28 06:08:08;;;;;;;30.42;28.35;;;;;;;16.05;44.81;100878.59;4996115;28;20086;-71
2023/04/28 06:10:34;;;;;;;31.27;28.73;;;;;;;16.05;44.85;100884.88;4996466;28;20488;-72
2023/04/28 06:13:00;;;;;;;31.02;28.92;;;;;;;16.06;44.74;100882.97;4979105;28;20038;-72
2023/04/28 06:15:25;;;;;;;29.70;27.27;;;;;;;16.04;45.13;100875.06;4978460;28;20092;-70
2023/04/28 06:17:51;;;;;;;29.50;27.38;;;;;;;16.05;44.94;100873.97;4978323;28;20045;-71
2023/04/28 06:20:17;;;;;;;28.23;26.33;;;;;;;16.04;44.96;100885.94;4996054;28;20030;-72
2023/04/28 06:22:42;;;;;;;30.27;28.05;;;;;;;16.05;44.77;100886.75;4996544;28;20081;-70
2023/04/28 06:25:08;;;;;;;28.55;26.50;;;;;;;16.04;45.22;100885.16;4995633;28;20030;-71
2023/04/28 06:27:33;;;;;;;29.15;26.88;;;;;;;16.03;45.10;100881.59;4995714;28;20085;-70
2023/04/28 06:29:59;;;;;;;27.95;25.92;;;;;;;16.02;45.13;100883.50;4996131;28;20498;-69
2023/04/28 06:32:24;;;;;;;30.70;28.55;;;;;;;16.04;45.08;100876.97;4995721;28;20030;-71
2023/04/28 06:34:49;;;;;;;26.80;25.05;;;;;;;16.02;44.89;100882.69;4995101;28;20034;-70
2023/04/28 06:37:15;;;;;;;29.77;27.58;;;;;;;16.02;44.93;100875.31;4995397;28;20386;-72
2023/04/28 06:39:41;;;;;;;30.95;28.65;;;;;;;16.02;44.96;100872.59;4977831;28;20117;-74
2023/04/28 06:42:06;;;;;;;28.90;26.58;;;;;;;16.02;45.14;100871.78;4995285;28;20039;-72
2023/04/28 06:44:32;;;;;;;29.80;27.55;;;;;;;16.02;45.15;100874.50;4995249;28;20041;-72
2023/04/28 06:46:57;;;;;;;28.70;26.38;;;;;;;16.01;45.04;100870.97;4995279;28;20049;-72
2023/04/28 06:49:23;;;;;;;28.02;26.05;;;;;;;16.01;45.25;100876.41;4995404;28;20486;-73
2023/04/28 06:51:48;;;;;;;32.33;29.80;;;;;;;16.01;45.38;100878.34;4995062;28;20035;-71
2023/04/28 06:54:13;;;;;;;29.45;27.23;;;;;;;16.01;45.32;100876.41;4994761;28;20033;-70
2023/04/28 06:56:39;;;;;;;28.90;26.85;;;;;;;16.00;45.00;100872.06;4995000;28;20036;-71
2023/04/28 06:59:05;;;;;;;28.55;26.50;;;;;;;16.01;45.43;100876.41;4994691;28;20418;-70
2023/04/28 07:01:30;;;;;;;30.65;28.45;;;;;;;16.00;45.09;100874.81;4995272;28;20030;-71
2023/04/28 07:03:55;;;;;;;29.90;27.92;;;;;;;16.02;45.17;100879.97;4994592;28;20089;-72
2023/04/28 07:06:21;;;;;;;29.15;27.23;;;;;;;16.02;45.07;100866.34;4995141;28;20450;-74
2023/04/28 07:08:46;;;;;;;29.60;27.15;;;;;;;16.01;45.57;100867.44;4995068;28;20065;-70
2023/04/28 07:11:12;;;;;;;28.50;26.55;;;;;;;16.02;45.27;100878.03;4978114;28;20038;-79
2023/04/28 07:13:37;;;;;;;31.98;29.13;;;;;;;16.01;45.63;100873.69;4978039;28;20044;-72
2023/04/28 07:16:03;;;;;;;29.00;26.90;;;;;;;16.01;45.72;100875.63;4994745;28;20040;-71
2023/04/28 07:18:29;;;;;;;30.50;28.35;;;;;;;16.01;45.64;100876.41;4994685;28;20041;-73
2023/04/28 07:20:54;;;;;;;30.60;28.50;;;;;;;16.02;45.49;100878.03;4994985;28;20426;-71
2023/04/28 07:23:19;;;;;;;29.50;27.30;;;;;;;16.04;45.80;100874.25;4994794;28;20467;-70
2023/04/28 07:25:45;;;;;;;30.50;28.20;;;;;;;16.04;45.86;100883.22;4994596;28;20088;-72
2023/04/28 07:28:11;;;;;;;29.02;26.98;;;;;;;16.05;45.90;100881.31;4993891;28;20038;-71
2023/04/28 07:30:36;;;;;;;30.17;28.10;;;;;;;16.05;45.81;100884.03;4994332;28;20533;-70
2023/04/28 07:33:02;;;;;;;29.58;27.40;;;;;;;16.06;45.77;100880.25;4977134;28;20429;-74
2023/04/28 07:35:28;;;;;;;30.63;28.40;;;;;;;16.06;45.81;100880.25;4994324;28;20489;-71
2023/04/28 07:37:54;;;;;;;32.65;30.30;;;;;;;16.07;45.62;100881.84;4976629;28;20022;-71
2023/04/28 07:40:20;;;;;;;29.98;27.95;;;;;;;16.07;46.08;100879.13;4994398;28;20118;-71
2023/04/28 07:42:46;;;;;;;29.88;27.48;;;;;;;16.07;45.81;100882.66;4993890;28;20113;-73
2023/04/28 07:45:11;;;;;;;30.80;28.58;;;;;;;16.08;45.92;100880.78;4994077;28;20141;-71
2023/04/28 07:47:37;;;;;;;29.88;27.35;;;;;;;16.09;46.35;100882.41;4976493;28;20031;-72
2023/04/28 07:50:05;;;;;;;30.67;28.17;;;;;;;16.10;45.88;100878.56;4994559;28;20121;-70
2023/04/28 07:52:31;;;;;;;31.85;29.65;;;;;;;16.10;46.30;100889.47;4994279;28;20065;-72
2023/04/28 07:54:57;;;;;;;33.40;30.73;;;;;;;16.10;46.12;100884.88;4994548;28;20084;-72
2023/04/28 07:57:23;;;;;;;30.00;27.90;;;;;;;16.11;46.33;100881.03;4993744;28;20038;-72
2023/04/28 07:59:49;;;;;;;30.35;28.15;;;;;;;16.12;46.48;100877.22;4994062;28;20120;-73
2023/04/28 08:02:15;;;;;;;31.23;28.92;;;;;;;16.12;46.50;100876.41;4994309;28;20030;-74
2023/04/28 08:04:40;;;;;;;31.88;29.45;;;;;;;16.12;46.40;100881.84;4975963;28;20129;-72
2023/04/28 08:07:06;;;;;;;32.53;30.00;;;;;;;16.12;46.66;100877.22;4976103;28;20038;-72
2023/04/28 08:09:31;;;;;;;28.88;27.05;;;;;;;16.13;46.81;100880.78;4993908;28;20057;-71
2023/04/28 08:11:57;;;;;;;32.25;29.85;;;;;;;16.14;46.68;100876.94;4994274;28;20030;-73
2023/04/28 08:14:23;;;;;;;28.00;26.08;;;;;;;16.14;46.52;100882.38;4993984;28;20125;-74
2023/04/28 08:16:49;;;;;;;34.33;31.45;;;;;;;16.14;46.83;100879.66;4977269;28;20118;-73
2023/04/28 08:19:14;;;;;;;29.15;27.13;;;;;;;16.14;46.45;100883.19;4993571;28;20030;-71
2023/04/28 08:21:40;;;;;;;31.10;28.60;;;;;;;16.15;46.47;100881.28;4994099;28;20036;-70
2023/04/28 08:24:07;;;;;;;30.58;28.38;;;;;;;16.15;47.04;100878.56;4993546;28;20089;-71
2023/04/28 08:26:32;;;;;;;30.27;28.17;;;;;;;16.15;47.08;100882.13;4993620;28;20109;-72
2023/04/28 08:28:58;;;;;;;31.42;29.35;;;;;;;16.17;46.89;100879.09;4993640;28;20176;-71
2023/04/28 08:31:23;;;;;;;31.08;28.63;;;;;;;16.17;47.01;100882.66;4993458;28;20118;-70
2023/04/28 08:33:50;;;;;;;31.38;29.13;;;;;;;16.17;47.10;100879.09;4993547;28;20034;-72
2023/04/28 08:36:16;;;;;;;29.63;27.60;;;;;;;16.17;46.70;100885.38;4993796;28;20045;-65
2023/04/28 08:38:43;;;;;;;32.00;29.50;;;;;;;16.17;47.20;100882.66;4993456;28;20498;-71
2023/04/28 08:41:11;;;;;;;29.83;27.80;;;;;;;16.19;47.35;100874.19;4993755;28;20042;-71
2023/04/28 08:43:39;;;;;;;28.88;26.85;;;;;;;16.21;47.20;100888.38;4993637;28;20034;-70
2023/04/28 08:46:06;;;;;;;29.58;27.23;;;;;;;16.22;47.29;100887.28;4993230;28;20038;-72
2023/04/28 08:48:42;;;;;;;29.88;27.33;;;;;;;16.23;47.43;100889.72;4993406;28;20026;-72
2023/04/28 08:51:08;;;;;;;28.92;26.73;;;;;;;16.24;47.31;100885.09;4993377;28;20048;-72
2023/04/28 08:53:38;;;;;;;26.88;25.25;;;;;;;16.24;47.29;100879.63;4993441;28;20110;-72
2023/04/28 08:56:09;;;;;;;29.55;27.20;;;;;;;16.25;47.31;100881.25;4976321;28;20388;-71
2023/04/28 08:58:36;;;;;;;29.35;27.08;;;;;;;16.26;47.42;100882.91;4993381;28;20474;-72
2023/04/28 09:01:03;;;;;;;33.40;30.50;;;;;;;16.28;47.56;100888.91;4976196;28;20034;-74
2023/04/28 09:03:29;;;;;;;33.38;30.63;;;;;;;16.29;47.57;100884.25;4960048;28;20180;-71
2023/04/28 09:05:55;;;;;;;34.28;31.55;;;;;;;16.30;47.69;100886.69;4993818;28;20497;-72
2023/04/28 09:08:20;;;;;;;30.30;28.02;;;;;;;16.31;48.01;100888.34;4992869;28;20038;-71
2023/04/28 09:10:46;;;;;;;30.42;28.25;;;;;;;16.32;47.93;100884.50;4994141;28;20050;-72
2023/04/28 09:13:24;;;;;;;30.83;28.45;;;;;;;16.34;47.69;100884.25;4993378;28;20447;-73
2023/04/28 09:15:50;;;;;;;30.80;28.58;;;;;;;16.36;47.80;100891.06;4993237;28;20386;-72
2023/04/28 09:18:15;;;;;;;35.75;32.42;;;;;;;16.37;47.63;100889.13;4996385;28;20467;-72
2023/04/28 09:20:41;;;;;;;29.90;28.10;;;;;;;16.38;47.89;100891.59;4996703;28;20100;-72
2023/04/28 09:23:16;;;;;;;33.08;30.25;;;;;;;16.40;48.29;100891.31;4996197;28;20402;-72
2023/04/28 09:25:58;;;;;;;32.40;29.92;;;;;;;16.40;48.06;100888.56;4996198;28;20113;-72
2023/04/28 09:28:23;;;;;;;28.80;26.85;;;;;;;16.40;48.16;100891.31;4996679;28;20064;-70
2023/04/28 09:30:49;;;;;;;31.45;28.45;;;;;;;16.42;48.10;100892.66;4996377;28;20061;-71
2023/04/28 09:33:15;;;;;;;31.75;29.25;;;;;;;16.43;47.75;100894.31;4996602;28;20451;-70
2023/04/28 09:35:47;;;;;;;29.98;27.67;;;;;;;16.44;48.19;100890.47;4996377;28;20041;-70
2023/04/28 09:38:13;;;;;;;29.85;27.67;;;;;;;16.46;48.19;100886.66;4996189;28;20089;-70
2023/04/28 09:40:56;;;;;;;30.55;28.17;;;;;;;16.47;47.91;100882.84;4996396;28;20041;-70
2023/04/28 09:43:29;;;;;;;30.58;28.33;;;;;;;16.48;48.27;100888.03;4979253;28;20070;-70
2023/04/28 09:45:57;;;;;;;33.45;30.60;;;;;;;16.49;48.34;100886.09;4996151;28;20378;-70
2023/04/28 09:48:34;;;;;;;30.40;28.17;;;;;;;16.51;48.24;100890.19;4978469;28;20027;-71
2023/04/28 09:51:06;;;;;;;31.27;28.92;;;;;;;16.52;48.26;100883.63;4996307;28;20418;-71
2023/04/28 09:53:33;;;;;;;30.85;28.45;;;;;;;16.52;48.37;100889.06;4995717;28;20446;-71
2023/04/28 09:56:00;;;;;;;35.50;32.22;;;;;;;16.54;48.31;100892.34;4995931;28;20084;-70
2023/04/28 09:58:27;;;;;;;34.75;31.77;;;;;;;16.56;48.27;100890.16;4978727;28;20034;-71
2023/04/28 10:00:57;;;;;;;31.08;28.70;;;;;;;16.57;48.39;100891.78;4995819;28;20532;-69
2023/04/28 10:03:27;;;;;;;29.75;27.40;;;;;;;16.59;48.62;100891.50;4978251;28;20084;-70
2023/04/28 10:05:53;;;;;;;35.78;32.92;;;;;;;16.61;48.60;100894.78;4995708;28;20037;-71
2023/04/28 10:08:22;;;;;;;35.13;31.85;;;;;;;16.62;48.64;100896.41;4995559;28;20387;-71
2023/04/28 10:10:48;;;;;;;35.67;32.80;;;;;;;16.64;48.92;100895.03;4996355;28;20386;-71
2023/04/28 10:13:18;;;;;;;39.30;35.47;;;;;;;16.66;48.59;100887.38;4995505;28;20034;-71
2023/04/28 10:15:44;;;;;;;35.00;31.77;;;;;;;16.69;49.08;100888.75;4995527;28;20037;-72
2023/04/28 10:18:13;;;;;;;41.10;36.75;;;;;;;16.70;49.11;100893.09;4995436;28;20121;-72
2023/04/28 10:20:51;;;;;;;35.17;32.25;;;;;;;16.72;48.99;100884.63;4996224;28;20042;-71
2023/04/28 10:23:46;;;;;;;37.67;34.05;;;;;;;16.74;49.04;100890.63;4978720;28;20375;-71
2023/04/28 10:26:13;;;;;;;39.95;35.90;;;;;;;16.72;49.22;100890.91;4995633;28;20034;-70
2023/04/28 10:28:47;;;;;;;40.15;36.13;;;;;;;16.73;49.75;100895.28;4994895;28;20494;-70
2023/04/28 10:31:22;;;;;;;39.70;35.13;;;;;;;16.76;50.01;100891.97;4995346;28;20038;-73
2023/04/28 10:33:48;;;;;;;35.80;32.63;;;;;;;16.79;49.63;100896.09;4996028;28;20063;-73
2023/04/28 10:36:51;;;;;;;37.78;34.35;;;;;;;16.78;49.84;100900.75;4995296;28;20088;-73
2023/04/28 10:39:17;;;;;;;40.60;36.47;;;;;;;16.79;49.75;100891.44;4995834;28;20038;-74
2023/04/28 10:41:46;;;;;;;34.28;31.15;;;;;;;16.81;49.75;100892.00;4995390;28;20026;-73
2023/04/28 10:44:29;;;;;;;37.85;34.25;;;;;;;16.82;49.97;100890.88;4995096;28;20035;-72
2023/04/28 10:47:06;;;;;;;40.80;36.90;;;;;;;16.83;50.10;100887.06;4995060;28;20070;-72
2023/04/28 10:49:53;;;;;;;39.60;35.38;;;;;;;16.83;50.47;100884.34;4995389;28;20030;-72
2023/04/28 10:52:37;;;;;;;35.83;32.35;;;;;;;16.83;50.37;100881.63;4995565;28;20038;-72
2023/04/28 10:55:25;;;;;;;35.30;32.10;;;;;;;16.85;50.30;100878.59;4994949;28;20121;-71
2023/04/28 10:58:14;;;;;;;33.88;30.98;;;;;;;16.85;50.61;100881.31;4977479;28;20557;-72
2023/04/28 11:00:40;;;;;;;35.13;32.10;;;;;;;16.88;50.12;100880.75;4984939;28;20052;-72
2023/04/28 11:03:06;;;;;;;38.53;34.90;;;;;;;16.90;49.99;100877.75;4994482;28;20386;-72
2023/04/28 11:05:33;;;;;;;34.88;31.92;;;;;;;16.93;50.18;100879.91;4995034;28;20026;-72
2023/04/28 11:08:25;;;;;;;35.28;32.22;;;;;;;16.94;50.34;100885.09;4994286;28;20037;-73